sensor_id;sensor_type;location;lat;lon;timestamp;temperature;humidity
65864;SHT30;52639;51.180;20.460;2024-01-25T00:03:36;5.86;83.78
65864;SHT30;52639;51.180;20.460;2024-01-25T00:07:46;5.88;84.84
65864;SHT30;52639;51.180;20.460;2024-01-25T00:11:48;5.81;84.25
65864;SHT30;52639;51.180;20.460;2024-01-25T00:15:58;5.86;83.88
65864;SHT30;52639;51.180;20.460;2024-01-25T00:20:00;5.75;84.92
65864;SHT30;52639;51.180;20.460;2024-01-25T00:24:04;5.69;85.97
65864;SHT30;52639;51.180;20.460;2024-01-25T00:28:06;5.71;87.49
65864;SHT30;52639;51.180;20.460;2024-01-25T00:32:08;5.62;86.81
65864;SHT30;52639;51.180;20.460;2024-01-25T00:36:10;5.45;86.65
65864;SHT30;52639;51.180;20.460;2024-01-25T00:40:14;5.27;88.58
65864;SHT30;52639;51.180;20.460;2024-01-25T00:44:16;5.24;89.08
65864;SHT30;52639;51.180;20.460;2024-01-25T00:48:18;5.00;90.36
65864;SHT30;52639;51.180;20.460;2024-01-25T00:52:21;4.87;91.34
65864;SHT30;52639;51.180;20.460;2024-01-25T01:58:35;5.51;84.80
65864;SHT30;52639;51.180;20.460;2024-01-25T02:02:38;5.45;84.90
65864;SHT30;52639;51.180;20.460;2024-01-25T02:11:11;5.34;86.35
65864;SHT30;52639;51.180;20.460;2024-01-25T02:15:14;5.34;85.80
65864;SHT30;52639;51.180;20.460;2024-01-25T02:19:16;5.21;86.98
65864;SHT30;52639;51.180;20.460;2024-01-25T02:23:19;5.05;88.37
65864;SHT30;52639;51.180;20.460;2024-01-25T02:27:21;4.87;89.02
65864;SHT30;52639;51.180;20.460;2024-01-25T02:31:23;4.67;90.43
65864;SHT30;52639;51.180;20.460;2024-01-25T02:35:25;4.60;90.48
65864;SHT30;52639;51.180;20.460;2024-01-25T02:39:28;4.63;90.74
65864;SHT30;52639;51.180;20.460;2024-01-25T02:47:59;4.60;90.30
65864;SHT30;52639;51.180;20.460;2024-01-25T02:52:02;4.63;90.77
65864;SHT30;52639;51.180;20.460;2024-01-25T02:56:06;4.54;90.60
65864;SHT30;52639;51.180;20.460;2024-01-25T03:00:12;4.43;91.74
65864;SHT30;52639;51.180;20.460;2024-01-25T03:04:14;4.40;91.85
65864;SHT30;52639;51.180;20.460;2024-01-25T03:08:16;4.54;91.27
65864;SHT30;52639;51.180;20.460;2024-01-25T03:12:20;4.50;91.04
65864;SHT30;52639;51.180;20.460;2024-01-25T03:16:22;4.42;91.49
65864;SHT30;52639;51.180;20.460;2024-01-25T03:20:23;4.46;91.71
65864;SHT30;52639;51.180;20.460;2024-01-25T03:24:26;4.30;91.66
65864;SHT30;52639;51.180;20.460;2024-01-25T03:28:29;4.26;92.09
65864;SHT30;52639;51.180;20.460;2024-01-25T03:32:32;4.39;91.92
65864;SHT30;52639;51.180;20.460;2024-01-25T03:36:34;4.49;91.50
65864;SHT30;52639;51.180;20.460;2024-01-25T03:40:37;4.30;91.94
65864;SHT30;52639;51.180;20.460;2024-01-25T03:49:34;4.20;92.51
65864;SHT30;52639;51.180;20.460;2024-01-25T03:53:36;4.19;92.53
65864;SHT30;52639;51.180;20.460;2024-01-25T03:57:37;4.26;92.70
65864;SHT30;52639;51.180;20.460;2024-01-25T04:01:41;4.23;92.63
65864;SHT30;52639;51.180;20.460;2024-01-25T04:05:45;4.20;92.29
65864;SHT30;52639;51.180;20.460;2024-01-25T04:09:47;4.23;92.10
65864;SHT30;52639;51.180;20.460;2024-01-25T04:13:51;4.28;91.99
65864;SHT30;52639;51.180;20.460;2024-01-25T04:17:53;4.20;92.57
65864;SHT30;52639;51.180;20.460;2024-01-25T04:21:58;4.23;92.14
65864;SHT30;52639;51.180;20.460;2024-01-25T04:26:00;4.23;91.99
65864;SHT30;52639;51.180;20.460;2024-01-25T04:30:02;4.30;91.79
65864;SHT30;52639;51.180;20.460;2024-01-25T04:34:05;4.33;91.26
65864;SHT30;52639;51.180;20.460;2024-01-25T04:38:08;4.29;91.00
65864;SHT30;52639;51.180;20.460;2024-01-25T04:42:10;4.32;90.82
65864;SHT30;52639;51.180;20.460;2024-01-25T04:46:12;4.42;90.68
65864;SHT30;52639;51.180;20.460;2024-01-25T04:50:14;4.46;89.91
65864;SHT30;52639;51.180;20.460;2024-01-25T04:58:43;4.25;90.36
65864;SHT30;52639;51.180;20.460;2024-01-25T05:02:45;4.13;90.96
65864;SHT30;52639;51.180;20.460;2024-01-25T05:06:46;4.08;91.73
65864;SHT30;52639;51.180;20.460;2024-01-25T05:10:48;3.95;91.63
65864;SHT30;52639;51.180;20.460;2024-01-25T05:14:51;3.96;92.52
65864;SHT30;52639;51.180;20.460;2024-01-25T05:18:53;3.82;93.11
65864;SHT30;52639;51.180;20.460;2024-01-25T05:22:55;3.77;93.54
65864;SHT30;52639;51.180;20.460;2024-01-25T05:26:57;3.70;94.88
65864;SHT30;52639;51.180;20.460;2024-01-25T05:31:00;3.68;94.77
65864;SHT30;52639;51.180;20.460;2024-01-25T05:35:02;3.73;95.74
65864;SHT30;52639;51.180;20.460;2024-01-25T05:39:05;3.68;95.59
65864;SHT30;52639;51.180;20.460;2024-01-25T05:43:09;3.63;95.97
65864;SHT30;52639;51.180;20.460;2024-01-25T05:47:12;3.61;95.75
65864;SHT30;52639;51.180;20.460;2024-01-25T05:51:14;3.60;95.59
65864;SHT30;52639;51.180;20.460;2024-01-25T05:55:16;3.55;95.71
65864;SHT30;52639;51.180;20.460;2024-01-25T05:59:18;3.60;95.89
65864;SHT30;52639;51.180;20.460;2024-01-25T06:03:21;3.55;96.22
65864;SHT30;52639;51.180;20.460;2024-01-25T06:07:23;3.57;96.49
65864;SHT30;52639;51.180;20.460;2024-01-25T06:11:25;3.54;96.46
65864;SHT30;52639;51.180;20.460;2024-01-25T06:15:27;3.55;96.22
65864;SHT30;52639;51.180;20.460;2024-01-25T06:19:30;3.55;96.27
65864;SHT30;52639;51.180;20.460;2024-01-25T06:23:32;3.55;96.31
65864;SHT30;52639;51.180;20.460;2024-01-25T06:32:05;3.55;97.12
65864;SHT30;52639;51.180;20.460;2024-01-25T06:36:08;3.53;96.76
65864;SHT30;52639;51.180;20.460;2024-01-25T06:40:10;3.60;96.48
65864;SHT30;52639;51.180;20.460;2024-01-25T06:44:12;3.55;96.78
65864;SHT30;52639;51.180;20.460;2024-01-25T06:48:14;3.53;96.93
65864;SHT30;52639;51.180;20.460;2024-01-25T06:52:19;3.54;96.98
65864;SHT30;52639;51.180;20.460;2024-01-25T06:56:20;3.53;97.11
65864;SHT30;52639;51.180;20.460;2024-01-25T07:00:26;3.54;97.03
65864;SHT30;52639;51.180;20.460;2024-01-25T07:04:28;3.55;96.92
65864;SHT30;52639;51.180;20.460;2024-01-25T07:12:53;3.55;97.85
65864;SHT30;52639;51.180;20.460;2024-01-25T07:21:51;3.57;97.63
65864;SHT30;52639;51.180;20.460;2024-01-25T07:25:53;3.60;97.57
65864;SHT30;52639;51.180;20.460;2024-01-25T07:29:57;3.60;97.71
65864;SHT30;52639;51.180;20.460;2024-01-25T07:33:58;3.60;97.61
65864;SHT30;52639;51.180;20.460;2024-01-25T07:38:04;3.61;97.53
65864;SHT30;52639;51.180;20.460;2024-01-25T07:42:06;3.67;97.46
65864;SHT30;52639;51.180;20.460;2024-01-25T07:46:09;3.65;97.55
65864;SHT30;52639;51.180;20.460;2024-01-25T07:50:11;3.70;97.59
65864;SHT30;52639;51.180;20.460;2024-01-25T07:54:14;3.71;97.62
65864;SHT30;52639;51.180;20.460;2024-01-25T07:58:16;3.74;98.14
65864;SHT30;52639;51.180;20.460;2024-01-25T08:02:19;3.71;97.99
65864;SHT30;52639;51.180;20.460;2024-01-25T08:06:21;3.74;98.01
65864;SHT30;52639;51.180;20.460;2024-01-25T08:10:23;3.75;98.00
65864;SHT30;52639;51.180;20.460;2024-01-25T08:14:25;3.77;97.55
65864;SHT30;52639;51.180;20.460;2024-01-25T08:18:28;3.75;98.06
65864;SHT30;52639;51.180;20.460;2024-01-25T08:22:30;3.74;98.16
65864;SHT30;52639;51.180;20.460;2024-01-25T08:26:32;3.78;98.22
65864;SHT30;52639;51.180;20.460;2024-01-25T08:35:09;3.82;98.18
65864;SHT30;52639;51.180;20.460;2024-01-25T08:39:11;3.84;98.00
65864;SHT30;52639;51.180;20.460;2024-01-25T08:43:13;3.88;98.20
65864;SHT30;52639;51.180;20.460;2024-01-25T08:47:16;3.89;98.14
65864;SHT30;52639;51.180;20.460;2024-01-25T08:51:20;3.89;98.08
65864;SHT30;52639;51.180;20.460;2024-01-25T08:55:21;3.85;98.05
65864;SHT30;52639;51.180;20.460;2024-01-25T08:59:24;3.82;98.16
65864;SHT30;52639;51.180;20.460;2024-01-25T09:03:26;3.82;98.01
65864;SHT30;52639;51.180;20.460;2024-01-25T09:07:29;3.82;98.05
65864;SHT30;52639;51.180;20.460;2024-01-25T09:11:31;3.82;97.84
65864;SHT30;52639;51.180;20.460;2024-01-25T09:15:33;3.85;98.02
65864;SHT30;52639;51.180;20.460;2024-01-25T09:19:34;3.82;97.97
65864;SHT30;52639;51.180;20.460;2024-01-25T09:23:38;3.86;98.16
65864;SHT30;52639;51.180;20.460;2024-01-25T09:27:40;3.98;98.16
65864;SHT30;52639;51.180;20.460;2024-01-25T09:31:42;4.02;97.96
65864;SHT30;52639;51.180;20.460;2024-01-25T09:35:44;3.95;97.84
65864;SHT30;52639;51.180;20.460;2024-01-25T09:39:50;3.96;97.90
65864;SHT30;52639;51.180;20.460;2024-01-25T09:43:52;4.01;97.67
65864;SHT30;52639;51.180;20.460;2024-01-25T09:47:55;3.99;97.39
65864;SHT30;52639;51.180;20.460;2024-01-25T09:51:56;3.92;97.52
65864;SHT30;52639;51.180;20.460;2024-01-25T09:56:02;3.96;98.00
65864;SHT30;52639;51.180;20.460;2024-01-25T10:00:05;3.99;97.91
65864;SHT30;52639;51.180;20.460;2024-01-25T10:04:12;4.01;97.88
65864;SHT30;52639;51.180;20.460;2024-01-25T10:08:14;4.01;97.70
65864;SHT30;52639;51.180;20.460;2024-01-25T10:12:17;3.95;97.85
65864;SHT30;52639;51.180;20.460;2024-01-25T10:16:19;3.95;97.82
65864;SHT30;52639;51.180;20.460;2024-01-25T10:20:24;3.96;97.85
65864;SHT30;52639;51.180;20.460;2024-01-25T10:24:27;3.96;98.15
65864;SHT30;52639;51.180;20.460;2024-01-25T10:28:30;3.96;97.99
65864;SHT30;52639;51.180;20.460;2024-01-25T10:32:33;3.99;97.96
65864;SHT30;52639;51.180;20.460;2024-01-25T10:36:35;4.06;97.84
65864;SHT30;52639;51.180;20.460;2024-01-25T10:40:39;4.08;97.68
65864;SHT30;52639;51.180;20.460;2024-01-25T10:44:46;4.03;97.68
65864;SHT30;52639;51.180;20.460;2024-01-25T10:48:48;4.10;97.50
65864;SHT30;52639;51.180;20.460;2024-01-25T10:52:51;4.19;97.30
65864;SHT30;52639;51.180;20.460;2024-01-25T10:56:53;4.18;96.97
65864;SHT30;52639;51.180;20.460;2024-01-25T11:00:59;4.26;97.01
65864;SHT30;52639;51.180;20.460;2024-01-25T11:05:08;4.25;96.92
65864;SHT30;52639;51.180;20.460;2024-01-25T11:09:16;4.18;96.85
65864;SHT30;52639;51.180;20.460;2024-01-25T11:13:23;4.09;96.89
65864;SHT30;52639;51.180;20.460;2024-01-25T11:17:27;4.05;96.65
65864;SHT30;52639;51.180;20.460;2024-01-25T11:21:39;4.02;97.33
65864;SHT30;52639;51.180;20.460;2024-01-25T11:25:44;4.01;97.54
65864;SHT30;52639;51.180;20.460;2024-01-25T11:29:46;4.01;97.29
65864;SHT30;52639;51.180;20.460;2024-01-25T11:33:50;4.06;97.42
65864;SHT30;52639;51.180;20.460;2024-01-25T11:37:52;4.06;97.39
65864;SHT30;52639;51.180;20.460;2024-01-25T11:41:54;4.08;97.38
65864;SHT30;52639;51.180;20.460;2024-01-25T11:45:57;4.03;97.52
65864;SHT30;52639;51.180;20.460;2024-01-25T11:50:00;4.02;97.79
65864;SHT30;52639;51.180;20.460;2024-01-25T11:54:03;4.01;97.65
65864;SHT30;52639;51.180;20.460;2024-01-25T11:58:07;4.06;97.75
65864;SHT30;52639;51.180;20.460;2024-01-25T12:02:09;4.06;97.47
65864;SHT30;52639;51.180;20.460;2024-01-25T12:06:12;4.09;97.68
65864;SHT30;52639;51.180;20.460;2024-01-25T12:10:15;4.06;97.63
65864;SHT30;52639;51.180;20.460;2024-01-25T12:14:17;4.09;97.75
65864;SHT30;52639;51.180;20.460;2024-01-25T12:18:19;4.16;97.26
65864;SHT30;52639;51.180;20.460;2024-01-25T12:22:23;4.22;97.19
65864;SHT30;52639;51.180;20.460;2024-01-25T12:26:25;4.19;97.21
65864;SHT30;52639;51.180;20.460;2024-01-25T12:30:27;4.18;96.77
65864;SHT30;52639;51.180;20.460;2024-01-25T12:34:29;4.13;96.95
65864;SHT30;52639;51.180;20.460;2024-01-25T12:38:32;4.08;97.24
65864;SHT30;52639;51.180;20.460;2024-01-25T12:42:35;4.06;97.43
65864;SHT30;52639;51.180;20.460;2024-01-25T12:46:37;4.12;97.42
65864;SHT30;52639;51.180;20.460;2024-01-25T12:50:39;4.09;97.56
65864;SHT30;52639;51.180;20.460;2024-01-25T12:54:43;4.08;97.40
65864;SHT30;52639;51.180;20.460;2024-01-25T12:58:44;4.12;97.15
65864;SHT30;52639;51.180;20.460;2024-01-25T13:02:46;4.10;97.32
65864;SHT30;52639;51.180;20.460;2024-01-25T13:06:49;4.08;97.55
65864;SHT30;52639;51.180;20.460;2024-01-25T13:10:52;4.01;97.79
65864;SHT30;52639;51.180;20.460;2024-01-25T13:14:54;4.01;98.00
65864;SHT30;52639;51.180;20.460;2024-01-25T13:18:56;4.01;97.95
65864;SHT30;52639;51.180;20.460;2024-01-25T13:22:58;3.96;97.92
65864;SHT30;52639;51.180;20.460;2024-01-25T13:31:58;3.88;97.65
65864;SHT30;52639;51.180;20.460;2024-01-25T13:36:00;3.91;98.09
65864;SHT30;52639;51.180;20.460;2024-01-25T13:40:02;3.91;97.99
65864;SHT30;52639;51.180;20.460;2024-01-25T13:44:04;3.96;98.16
65864;SHT30;52639;51.180;20.460;2024-01-25T13:48:08;3.98;98.19
65864;SHT30;52639;51.180;20.460;2024-01-25T13:52:14;3.98;98.41
65864;SHT30;52639;51.180;20.460;2024-01-25T13:56:18;3.99;98.28
65864;SHT30;52639;51.180;20.460;2024-01-25T14:00:20;4.01;98.19
65864;SHT30;52639;51.180;20.460;2024-01-25T14:04:24;3.98;98.23
65864;SHT30;52639;51.180;20.460;2024-01-25T14:12:52;3.91;98.17
65864;SHT30;52639;51.180;20.460;2024-01-25T14:16:56;3.91;97.95
65864;SHT30;52639;51.180;20.460;2024-01-25T14:20:59;3.88;98.09
65864;SHT30;52639;51.180;20.460;2024-01-25T14:25:01;3.82;98.12
65864;SHT30;52639;51.180;20.460;2024-01-25T14:29:03;3.79;98.05
65864;SHT30;52639;51.180;20.460;2024-01-25T14:33:05;3.77;98.23
65864;SHT30;52639;51.180;20.460;2024-01-25T14:37:08;3.71;98.33
65864;SHT30;52639;51.180;20.460;2024-01-25T14:41:10;3.71;98.23
65864;SHT30;52639;51.180;20.460;2024-01-25T14:45:12;3.68;98.66
65864;SHT30;52639;51.180;20.460;2024-01-25T14:49:15;3.67;98.77
65864;SHT30;52639;51.180;20.460;2024-01-25T14:53:18;3.67;98.68
65864;SHT30;52639;51.180;20.460;2024-01-25T14:57:20;3.65;98.85
65864;SHT30;52639;51.180;20.460;2024-01-25T15:01:23;3.63;98.93
65864;SHT30;52639;51.180;20.460;2024-01-25T15:05:29;3.65;99.11
65864;SHT30;52639;51.180;20.460;2024-01-25T15:09:33;3.65;98.87
65864;SHT30;52639;51.180;20.460;2024-01-25T15:13:35;3.65;99.04
65864;SHT30;52639;51.180;20.460;2024-01-25T15:17:36;3.65;98.75
65864;SHT30;52639;51.180;20.460;2024-01-25T15:21:38;3.67;98.48
65864;SHT30;52639;51.180;20.460;2024-01-25T15:25:41;3.67;98.51
65864;SHT30;52639;51.180;20.460;2024-01-25T15:29:43;3.65;98.73
65864;SHT30;52639;51.180;20.460;2024-01-25T15:33:45;3.64;99.08
65864;SHT30;52639;51.180;20.460;2024-01-25T15:37:47;3.64;99.14
65864;SHT30;52639;51.180;20.460;2024-01-25T15:41:50;3.63;98.93
65864;SHT30;52639;51.180;20.460;2024-01-25T15:46:00;3.63;99.03
65864;SHT30;52639;51.180;20.460;2024-01-25T15:50:02;3.60;99.04
65864;SHT30;52639;51.180;20.460;2024-01-25T15:54:06;3.57;98.98
65864;SHT30;52639;51.180;20.460;2024-01-25T15:58:09;3.54;98.71
65864;SHT30;52639;51.180;20.460;2024-01-25T16:02:11;3.54;99.11
65864;SHT30;52639;51.180;20.460;2024-01-25T16:06:13;3.50;99.09
65864;SHT30;52639;51.180;20.460;2024-01-25T16:10:15;3.45;98.87
65864;SHT30;52639;51.180;20.460;2024-01-25T16:14:19;3.47;98.70
65864;SHT30;52639;51.180;20.460;2024-01-25T16:18:21;3.45;98.41
65864;SHT30;52639;51.180;20.460;2024-01-25T16:22:22;3.41;98.56
65864;SHT30;52639;51.180;20.460;2024-01-25T16:26:24;3.43;98.72
65864;SHT30;52639;51.180;20.460;2024-01-25T16:30:27;3.41;98.47
65864;SHT30;52639;51.180;20.460;2024-01-25T16:34:29;3.43;98.58
65864;SHT30;52639;51.180;20.460;2024-01-25T16:38:31;3.38;98.33
65864;SHT30;52639;51.180;20.460;2024-01-25T16:42:34;3.34;98.56
65864;SHT30;52639;51.180;20.460;2024-01-25T16:46:38;3.31;98.64
65864;SHT30;52639;51.180;20.460;2024-01-25T16:50:39;3.28;99.39
65864;SHT30;52639;51.180;20.460;2024-01-25T16:54:41;3.26;99.10
65864;SHT30;52639;51.180;20.460;2024-01-25T16:58:43;3.26;98.98
65864;SHT30;52639;51.180;20.460;2024-01-25T17:02:47;3.20;98.78
65864;SHT30;52639;51.180;20.460;2024-01-25T17:06:50;3.20;99.47
65864;SHT30;52639;51.180;20.460;2024-01-25T17:10:52;3.17;99.26
65864;SHT30;52639;51.180;20.460;2024-01-25T17:14:54;3.13;99.31
65864;SHT30;52639;51.180;20.460;2024-01-25T17:18:58;3.13;99.12
65864;SHT30;52639;51.180;20.460;2024-01-25T17:23:09;3.13;99.63
65864;SHT30;52639;51.180;20.460;2024-01-25T17:27:11;3.10;99.20
65864;SHT30;52639;51.180;20.460;2024-01-25T17:31:28;3.06;99.09
65864;SHT30;52639;51.180;20.460;2024-01-25T17:35:32;3.00;99.21
65864;SHT30;52639;51.180;20.460;2024-01-25T17:39:34;3.01;99.41
65864;SHT30;52639;51.180;20.460;2024-01-25T17:43:35;3.01;99.55
65864;SHT30;52639;51.180;20.460;2024-01-25T17:47:37;2.87;99.26
65864;SHT30;52639;51.180;20.460;2024-01-25T17:51:40;2.45;99.17
65864;SHT30;52639;51.180;20.460;2024-01-25T17:55:42;2.25;99.51
65864;SHT30;52639;51.180;20.460;2024-01-25T17:59:44;2.17;99.82
65864;SHT30;52639;51.180;20.460;2024-01-25T18:03:46;2.10;99.93
65864;SHT30;52639;51.180;20.460;2024-01-25T18:07:51;2.10;99.99
65864;SHT30;52639;51.180;20.460;2024-01-25T18:11:52;2.07;99.99
65864;SHT30;52639;51.180;20.460;2024-01-25T18:15:54;2.04;99.99
65864;SHT30;52639;51.180;20.460;2024-01-25T18:19:56;2.01;99.97
65864;SHT30;52639;51.180;20.460;2024-01-25T18:23:59;2.00;99.97
65864;SHT30;52639;51.180;20.460;2024-01-25T18:28:03;1.94;99.99
65864;SHT30;52639;51.180;20.460;2024-01-25T18:32:06;1.95;99.99
65864;SHT30;52639;51.180;20.460;2024-01-25T18:36:08;1.95;99.98
65864;SHT30;52639;51.180;20.460;2024-01-25T18:40:14;1.94;99.99
65864;SHT30;52639;51.180;20.460;2024-01-25T18:44:15;1.88;99.83
65864;SHT30;52639;51.180;20.460;2024-01-25T18:48:17;1.85;99.84
65864;SHT30;52639;51.180;20.460;2024-01-25T18:52:19;1.80;99.99
65864;SHT30;52639;51.180;20.460;2024-01-25T18:56:22;1.81;99.99
65864;SHT30;52639;51.180;20.460;2024-01-25T19:00:25;1.78;99.85
65864;SHT30;52639;51.180;20.460;2024-01-25T19:04:27;1.78;99.96
65864;SHT30;52639;51.180;20.460;2024-01-25T19:08:29;1.80;99.56
65864;SHT30;52639;51.180;20.460;2024-01-25T19:12:33;1.78;99.74
65864;SHT30;52639;51.180;20.460;2024-01-25T19:16:35;1.74;99.47
65864;SHT30;52639;51.180;20.460;2024-01-25T19:20:36;1.70;99.63
65864;SHT30;52639;51.180;20.460;2024-01-25T19:24:40;1.66;99.79
65864;SHT30;52639;51.180;20.460;2024-01-25T19:28:44;1.63;99.92
65864;SHT30;52639;51.180;20.460;2024-01-25T19:32:45;1.61;99.79
65864;SHT30;52639;51.180;20.460;2024-01-25T19:36:47;1.60;99.81
65864;SHT30;52639;51.180;20.460;2024-01-25T19:40:49;1.56;99.80
65864;SHT30;52639;51.180;20.460;2024-01-25T19:44:53;1.56;99.66
65864;SHT30;52639;51.180;20.460;2024-01-25T19:48:54;1.50;99.56
65864;SHT30;52639;51.180;20.460;2024-01-25T19:53:11;1.49;99.53
65864;SHT30;52639;51.180;20.460;2024-01-25T19:57:13;1.46;99.49
65864;SHT30;52639;51.180;20.460;2024-01-25T20:01:17;1.42;99.44
65864;SHT30;52639;51.180;20.460;2024-01-25T20:05:19;1.39;99.40
65864;SHT30;52639;51.180;20.460;2024-01-25T20:09:21;1.37;99.49
65864;SHT30;52639;51.180;20.460;2024-01-25T20:13:23;1.39;99.50
65864;SHT30;52639;51.180;20.460;2024-01-25T20:17:26;1.33;99.49
65864;SHT30;52639;51.180;20.460;2024-01-25T20:21:28;1.36;99.54
65864;SHT30;52639;51.180;20.460;2024-01-25T20:25:30;1.35;99.52
65864;SHT30;52639;51.180;20.460;2024-01-25T20:29:32;1.37;99.50
65864;SHT30;52639;51.180;20.460;2024-01-25T20:33:35;1.36;99.40
65864;SHT30;52639;51.180;20.460;2024-01-25T20:37:37;1.35;99.37
65864;SHT30;52639;51.180;20.460;2024-01-25T20:41:39;1.33;99.57
65864;SHT30;52639;51.180;20.460;2024-01-25T20:45:41;1.30;99.58
65864;SHT30;52639;51.180;20.460;2024-01-25T20:49:44;1.26;99.59
65864;SHT30;52639;51.180;20.460;2024-01-25T20:53:46;1.22;99.30
65864;SHT30;52639;51.180;20.460;2024-01-25T20:57:48;1.16;99.32
65864;SHT30;52639;51.180;20.460;2024-01-25T21:01:52;1.12;99.20
65864;SHT30;52639;51.180;20.460;2024-01-25T21:05:56;1.07;99.23
65864;SHT30;52639;51.180;20.460;2024-01-25T21:09:58;1.06;99.29
65864;SHT30;52639;51.180;20.460;2024-01-25T21:14:00;1.02;99.13
65864;SHT30;52639;51.180;20.460;2024-01-25T21:18:03;1.00;99.16
65864;SHT30;52639;51.180;20.460;2024-01-25T21:22:06;0.97;99.20
65864;SHT30;52639;51.180;20.460;2024-01-25T21:26:08;0.95;99.13
65864;SHT30;52639;51.180;20.460;2024-01-25T21:30:11;0.93;99.07
65864;SHT30;52639;51.180;20.460;2024-01-25T21:34:13;0.91;99.10
65864;SHT30;52639;51.180;20.460;2024-01-25T21:38:17;0.82;98.66
65864;SHT30;52639;51.180;20.460;2024-01-25T21:46:42;0.75;98.78
65864;SHT30;52639;51.180;20.460;2024-01-25T21:50:44;0.75;98.73
65864;SHT30;52639;51.180;20.460;2024-01-25T21:54:53;0.72;98.89
65864;SHT30;52639;51.180;20.460;2024-01-25T21:58:55;0.68;98.66
65864;SHT30;52639;51.180;20.460;2024-01-25T22:02:57;0.72;98.72
65864;SHT30;52639;51.180;20.460;2024-01-25T22:06:59;0.69;98.73
65864;SHT30;52639;51.180;20.460;2024-01-25T22:11:02;0.71;98.78
65864;SHT30;52639;51.180;20.460;2024-01-25T22:15:05;0.68;98.60
65864;SHT30;52639;51.180;20.460;2024-01-25T22:19:07;0.65;98.51
65864;SHT30;52639;51.180;20.460;2024-01-25T22:23:09;0.61;98.30
65864;SHT30;52639;51.180;20.460;2024-01-25T22:27:12;0.58;98.13
65864;SHT30;52639;51.180;20.460;2024-01-25T22:31:14;0.54;97.70
65864;SHT30;52639;51.180;20.460;2024-01-25T22:35:16;0.51;97.39
65864;SHT30;52639;51.180;20.460;2024-01-25T22:39:18;0.52;97.17
65864;SHT30;52639;51.180;20.460;2024-01-25T22:43:21;0.51;97.07
65864;SHT30;52639;51.180;20.460;2024-01-25T22:47:24;0.51;97.09
65864;SHT30;52639;51.180;20.460;2024-01-25T22:51:26;0.52;97.13
65864;SHT30;52639;51.180;20.460;2024-01-25T22:55:28;0.48;97.15
65864;SHT30;52639;51.180;20.460;2024-01-25T22:59:31;0.45;97.23
65864;SHT30;52639;51.180;20.460;2024-01-25T23:03:33;0.44;97.28
65864;SHT30;52639;51.180;20.460;2024-01-25T23:07:39;0.42;97.35
65864;SHT30;52639;51.180;20.460;2024-01-25T23:11:41;0.42;97.47
65864;SHT30;52639;51.180;20.460;2024-01-25T23:15:44;0.45;97.48
65864;SHT30;52639;51.180;20.460;2024-01-25T23:19:50;0.44;97.54
65864;SHT30;52639;51.180;20.460;2024-01-25T23:23:52;0.48;97.48
65864;SHT30;52639;51.180;20.460;2024-01-25T23:27:56;0.47;97.47
65864;SHT30;52639;51.180;20.460;2024-01-25T23:31:59;0.44;97.48
65864;SHT30;52639;51.180;20.460;2024-01-25T23:36:01;0.48;97.35
65864;SHT30;52639;51.180;20.460;2024-01-25T23:40:06;0.50;97.29
65864;SHT30;52639;51.180;20.460;2024-01-25T23:44:08;0.50;97.21
65864;SHT30;52639;51.180;20.460;2024-01-25T23:48:11;0.51;97.16
65864;SHT30;52639;51.180;20.460;2024-01-25T23:52:13;0.52;97.05
65864;SHT30;52639;51.180;20.460;2024-01-25T23:56:15;0.52;97.02
